<?xml version="1.0" encoding="UTF-8" standalone="no" ?>
<gpx xmlns="http://www.topografix.com/GPX/1/1" xmlns:xsi="http://www.w3.org/2001/XMLSchema-instance" xsi:schemaLocation="http://www.topografix.com/GPX/1/1 http://www.topografix.com/GPX/1/1/gpx.xsd" version="1.1" creator="VisuGPX - https://www.visugpx.com">
  <metadata>
    <name>BEARN</name>
    <desc><![CDATA[Eysus Asasp Issor Escot]]></desc>
  </metadata>
  <trk>
    <name><![CDATA[Asasp - Issor - Escot - 34068 - UtagawaVTT.com]]></name>
    <desc><![CDATA[Eysus Asasp Issor Escot]]></desc>
    <trkseg>
      <trkpt lat="43.13887" lon="-0.59249">
        <ele>262.113</ele>
        <time>2020-12-03T11:16:24Z</time>
      </trkpt>
      <trkpt lat="43.13903" lon="-0.59249">
        <ele>262.143</ele>
        <time>2020-12-03T11:26:37Z</time>
      </trkpt>
      <trkpt lat="43.13907" lon="-0.59305">
        <ele>262.107</ele>
        <time>2020-12-03T11:26:54Z</time>
      </trkpt>
      <trkpt lat="43.13685" lon="-0.59444">
        <ele>267.608</ele>
        <time>2020-12-03T11:27:46Z</time>
      </trkpt>
      <trkpt lat="43.1354" lon="-0.595">
        <ele>267.497</ele>
        <time>2020-12-03T11:28:17Z</time>
      </trkpt>
      <trkpt lat="43.13488" lon="-0.59546">
        <ele>268.182</ele>
        <time>2020-12-03T11:28:29Z</time>
      </trkpt>
      <trkpt lat="43.13179" lon="-0.59629">
        <ele>271.827</ele>
        <time>2020-12-03T11:29:37Z</time>
      </trkpt>
      <trkpt lat="43.12862" lon="-0.59773">
        <ele>275.423</ele>
        <time>2020-12-03T11:30:48Z</time>
      </trkpt>
      <trkpt lat="43.12803" lon="-0.59809">
        <ele>274.924</ele>
        <time>2020-12-03T11:31:01Z</time>
      </trkpt>
      <trkpt lat="43.12745" lon="-0.59894">
        <ele>275.639</ele>
        <time>2020-12-03T11:31:16Z</time>
      </trkpt>
      <trkpt lat="43.12684" lon="-0.59925">
        <ele>277.092</ele>
        <time>2020-12-03T11:31:29Z</time>
      </trkpt>
      <trkpt lat="43.12605" lon="-0.59957">
        <ele>279.193</ele>
        <time>2020-12-03T11:31:47Z</time>
      </trkpt>
      <trkpt lat="43.12484" lon="-0.5996">
        <ele>283.498</ele>
        <time>2020-12-03T11:32:16Z</time>
      </trkpt>
      <trkpt lat="43.1236" lon="-0.60012">
        <ele>287.015</ele>
        <time>2020-12-03T11:32:50Z</time>
      </trkpt>
      <trkpt lat="43.12192" lon="-0.60165">
        <ele>284.326</ele>
        <time>2020-12-03T11:33:44Z</time>
      </trkpt>
      <trkpt lat="43.1206" lon="-0.60208">
        <ele>287.508</ele>
        <time>2020-12-03T11:34:16Z</time>
      </trkpt>
      <trkpt lat="43.11977" lon="-0.60259">
        <ele>291.045</ele>
        <time>2020-12-03T11:34:36Z</time>
      </trkpt>
      <trkpt lat="43.11675" lon="-0.60513">
        <ele>298.58</ele>
        <time>2020-12-03T11:36:04Z</time>
      </trkpt>
      <trkpt lat="43.11573" lon="-0.60537">
        <ele>300.015</ele>
        <time>2020-12-03T11:36:31Z</time>
      </trkpt>
      <trkpt lat="43.11502" lon="-0.6064">
        <ele>300.231</ele>
        <time>2020-12-03T11:36:59Z</time>
      </trkpt>
      <trkpt lat="43.11546" lon="-0.60692">
        <ele>297.952</ele>
        <time>2020-12-03T11:37:11Z</time>
      </trkpt>
      <trkpt lat="43.11561" lon="-0.60783">
        <ele>292.967</ele>
        <time>2020-12-03T11:37:19Z</time>
      </trkpt>
      <trkpt lat="43.1161" lon="-0.60841">
        <ele>288.01</ele>
        <time>2020-12-03T11:37:25Z</time>
      </trkpt>
      <trkpt lat="43.11688" lon="-0.60839">
        <ele>283.411</ele>
        <time>2020-12-03T11:37:32Z</time>
      </trkpt>
      <trkpt lat="43.11804" lon="-0.608">
        <ele>277.395</ele>
        <time>2020-12-03T11:37:44Z</time>
      </trkpt>
      <trkpt lat="43.11843" lon="-0.60826">
        <ele>275.249</ele>
        <time>2020-12-03T11:37:48Z</time>
      </trkpt>
      <trkpt lat="43.11919" lon="-0.60979">
        <ele>272.123</ele>
        <time>2020-12-03T11:38:06Z</time>
      </trkpt>
      <trkpt lat="43.12004" lon="-0.61036">
        <ele>273.608</ele>
        <time>2020-12-03T11:38:24Z</time>
      </trkpt>
      <trkpt lat="43.12164" lon="-0.61248">
        <ele>278.825</ele>
        <time>2020-12-03T11:39:07Z</time>
      </trkpt>
      <trkpt lat="43.12226" lon="-0.61353">
        <ele>282.17</ele>
        <time>2020-12-03T11:39:36Z</time>
      </trkpt>
      <trkpt lat="43.1227" lon="-0.61357">
        <ele>284.625</ele>
        <time>2020-12-03T11:39:52Z</time>
      </trkpt>
      <trkpt lat="43.12228" lon="-0.61454">
        <ele>291.671</ele>
        <time>2020-12-03T11:40:23Z</time>
      </trkpt>
      <trkpt lat="43.12227" lon="-0.61495">
        <ele>296.592</ele>
        <time>2020-12-03T11:40:38Z</time>
      </trkpt>
      <trkpt lat="43.12333" lon="-0.6154">
        <ele>295.077</ele>
        <time>2020-12-03T11:41:12Z</time>
      </trkpt>
      <trkpt lat="43.12402" lon="-0.6146">
        <ele>296.43</ele>
        <time>2020-12-03T11:41:36Z</time>
      </trkpt>
      <trkpt lat="43.12424" lon="-0.61503">
        <ele>299.091</ele>
        <time>2020-12-03T11:41:47Z</time>
      </trkpt>
      <trkpt lat="43.12386" lon="-0.6158">
        <ele>302.889</ele>
        <time>2020-12-03T11:42:06Z</time>
      </trkpt>
      <trkpt lat="43.12399" lon="-0.61658">
        <ele>305.906</ele>
        <time>2020-12-03T11:42:21Z</time>
      </trkpt>
      <trkpt lat="43.12503" lon="-0.61855">
        <ele>320.526</ele>
        <time>2020-12-03T11:43:26Z</time>
      </trkpt>
      <trkpt lat="43.12541" lon="-0.61879">
        <ele>323.508</ele>
        <time>2020-12-03T11:43:38Z</time>
      </trkpt>
      <trkpt lat="43.12776" lon="-0.61902">
        <ele>347.254</ele>
        <time>2020-12-03T11:45:13Z</time>
      </trkpt>
      <trkpt lat="43.12821" lon="-0.61938">
        <ele>350.579</ele>
        <time>2020-12-03T11:45:31Z</time>
      </trkpt>
      <trkpt lat="43.12853" lon="-0.61998">
        <ele>354.024</ele>
        <time>2020-12-03T11:45:52Z</time>
      </trkpt>
      <trkpt lat="43.12877" lon="-0.62192">
        <ele>351.81</ele>
        <time>2020-12-03T11:46:31Z</time>
      </trkpt>
      <trkpt lat="43.1288" lon="-0.62515">
        <ele>341.631</ele>
        <time>2020-12-03T11:47:05Z</time>
      </trkpt>
      <trkpt lat="43.12805" lon="-0.62538">
        <ele>338.596</ele>
        <time>2020-12-03T11:47:16Z</time>
      </trkpt>
      <trkpt lat="43.12761" lon="-0.62472">
        <ele>341.969</ele>
        <time>2020-12-03T11:47:35Z</time>
      </trkpt>
      <trkpt lat="43.12738" lon="-0.62477">
        <ele>343.34</ele>
        <time>2020-12-03T11:47:43Z</time>
      </trkpt>
      <trkpt lat="43.126" lon="-0.62775">
        <ele>358.758</ele>
        <time>2020-12-03T11:49:10Z</time>
      </trkpt>
      <trkpt lat="43.1258" lon="-0.62862">
        <ele>364.952</ele>
        <time>2020-12-03T11:49:41Z</time>
      </trkpt>
      <trkpt lat="43.126" lon="-0.62956">
        <ele>370.417</ele>
        <time>2020-12-03T11:50:12Z</time>
      </trkpt>
      <trkpt lat="43.12589" lon="-0.63011">
        <ele>374.408</ele>
        <time>2020-12-03T11:50:32Z</time>
      </trkpt>
      <trkpt lat="43.12601" lon="-0.63026">
        <ele>374.621</ele>
        <time>2020-12-03T11:50:38Z</time>
      </trkpt>
      <trkpt lat="43.12637" lon="-0.63007">
        <ele>377.496</ele>
        <time>2020-12-03T11:50:56Z</time>
      </trkpt>
      <trkpt lat="43.1268" lon="-0.62951">
        <ele>383.121</ele>
        <time>2020-12-03T11:51:25Z</time>
      </trkpt>
      <trkpt lat="43.12713" lon="-0.62937">
        <ele>385.317</ele>
        <time>2020-12-03T11:51:38Z</time>
      </trkpt>
      <trkpt lat="43.12822" lon="-0.62985">
        <ele>396.088</ele>
        <time>2020-12-03T11:52:30Z</time>
      </trkpt>
      <trkpt lat="43.1284" lon="-0.63022">
        <ele>399.173</ele>
        <time>2020-12-03T11:52:46Z</time>
      </trkpt>
      <trkpt lat="43.12782" lon="-0.6315">
        <ele>408.866</ele>
        <time>2020-12-03T11:53:38Z</time>
      </trkpt>
      <trkpt lat="43.1272" lon="-0.63187">
        <ele>414.457</ele>
        <time>2020-12-03T11:54:07Z</time>
      </trkpt>
      <trkpt lat="43.12719" lon="-0.63169">
        <ele>415.517</ele>
        <time>2020-12-03T11:54:14Z</time>
      </trkpt>
      <trkpt lat="43.12758" lon="-0.63117">
        <ele>418.987</ele>
        <time>2020-12-03T11:54:40Z</time>
      </trkpt>
      <trkpt lat="43.12743" lon="-0.63101">
        <ele>421.315</ele>
        <time>2020-12-03T11:54:51Z</time>
      </trkpt>
      <trkpt lat="43.12715" lon="-0.63144">
        <ele>424.108</ele>
        <time>2020-12-03T11:55:08Z</time>
      </trkpt>
      <trkpt lat="43.12637" lon="-0.63189">
        <ele>430.847</ele>
        <time>2020-12-03T11:55:48Z</time>
      </trkpt>
      <trkpt lat="43.12556" lon="-0.63276">
        <ele>430.062</ele>
        <time>2020-12-03T11:57:07Z</time>
      </trkpt>
      <trkpt lat="43.12447" lon="-0.6342">
        <ele>432.447</ele>
        <time>2020-12-03T11:58:02Z</time>
      </trkpt>
      <trkpt lat="43.12448" lon="-0.63486">
        <ele>440.153</ele>
        <time>2020-12-03T11:58:30Z</time>
      </trkpt>
      <trkpt lat="43.12501" lon="-0.63677">
        <ele>442.884</ele>
        <time>2020-12-03T11:59:41Z</time>
      </trkpt>
      <trkpt lat="43.12534" lon="-0.63715">
        <ele>444.079</ele>
        <time>2020-12-03T12:01:49Z</time>
      </trkpt>
      <trkpt lat="43.12641" lon="-0.63669">
        <ele>441.172</ele>
        <time>2020-12-03T12:04:29Z</time>
      </trkpt>
      <trkpt lat="43.12694" lon="-0.63709">
        <ele>436.863</ele>
        <time>2020-12-03T12:04:57Z</time>
      </trkpt>
      <trkpt lat="43.12795" lon="-0.63583">
        <ele>430.147</ele>
        <time>2020-12-03T12:05:42Z</time>
      </trkpt>
      <trkpt lat="43.12851" lon="-0.63546">
        <ele>422.229</ele>
        <time>2020-12-03T12:06:59Z</time>
      </trkpt>
      <trkpt lat="43.12869" lon="-0.63554">
        <ele>418.821</ele>
        <time>2020-12-03T12:07:06Z</time>
      </trkpt>
      <trkpt lat="43.12895" lon="-0.63621">
        <ele>411.708</ele>
        <time>2020-12-03T12:07:22Z</time>
      </trkpt>
      <trkpt lat="43.12927" lon="-0.6364">
        <ele>406.68</ele>
        <time>2020-12-03T12:07:31Z</time>
      </trkpt>
      <trkpt lat="43.13011" lon="-0.6353">
        <ele>395.985</ele>
        <time>2020-12-03T12:07:51Z</time>
      </trkpt>
      <trkpt lat="43.13083" lon="-0.63489">
        <ele>393.24</ele>
        <time>2020-12-03T12:08:08Z</time>
      </trkpt>
      <trkpt lat="43.13124" lon="-0.63491">
        <ele>393.466</ele>
        <time>2020-12-03T12:08:20Z</time>
      </trkpt>
      <trkpt lat="43.13219" lon="-0.63562">
        <ele>389.157</ele>
        <time>2020-12-03T12:09:08Z</time>
      </trkpt>
      <trkpt lat="43.13221" lon="-0.6355">
        <ele>390.382</ele>
        <time>2020-12-03T12:11:49Z</time>
      </trkpt>
      <trkpt lat="43.13157" lon="-0.63655">
        <ele>407.295</ele>
        <time>2020-12-03T12:13:06Z</time>
      </trkpt>
      <trkpt lat="43.13101" lon="-0.63872">
        <ele>438.516</ele>
        <time>2020-12-03T12:14:38Z</time>
      </trkpt>
      <trkpt lat="43.13029" lon="-0.63968">
        <ele>459.193</ele>
        <time>2020-12-03T12:15:36Z</time>
      </trkpt>
      <trkpt lat="43.12954" lon="-0.64001">
        <ele>472.165</ele>
        <time>2020-12-03T12:17:18Z</time>
      </trkpt>
      <trkpt lat="43.12825" lon="-0.63989">
        <ele>495.921</ele>
        <time>2020-12-03T12:19:15Z</time>
      </trkpt>
      <trkpt lat="43.12773" lon="-0.6402">
        <ele>496.108</ele>
        <time>2020-12-03T12:19:57Z</time>
      </trkpt>
      <trkpt lat="43.12526" lon="-0.64103">
        <ele>503.895</ele>
        <time>2020-12-03T12:29:27Z</time>
      </trkpt>
      <trkpt lat="43.12389" lon="-0.64183">
        <ele>500.34</ele>
        <time>2020-12-03T12:31:11Z</time>
      </trkpt>
      <trkpt lat="43.12304" lon="-0.64258">
        <ele>502.715</ele>
        <time>2020-12-03T12:34:21Z</time>
      </trkpt>
      <trkpt lat="43.12256" lon="-0.64322">
        <ele>508.211</ele>
        <time>2020-12-03T12:34:52Z</time>
      </trkpt>
      <trkpt lat="43.12097" lon="-0.64621">
        <ele>529.092</ele>
        <time>2020-12-03T12:36:43Z</time>
      </trkpt>
      <trkpt lat="43.12102" lon="-0.64699">
        <ele>537.567</ele>
        <time>2020-12-03T12:37:17Z</time>
      </trkpt>
      <trkpt lat="43.12169" lon="-0.64775">
        <ele>552.11</ele>
        <time>2020-12-03T12:38:43Z</time>
      </trkpt>
      <trkpt lat="43.12161" lon="-0.64805">
        <ele>556.431</ele>
        <time>2020-12-03T12:39:10Z</time>
      </trkpt>
      <trkpt lat="43.12171" lon="-0.64831">
        <ele>555.746</ele>
        <time>2020-12-03T12:40:40Z</time>
      </trkpt>
      <trkpt lat="43.1214" lon="-0.64853">
        <ele>564.388</ele>
        <time>2020-12-03T12:41:01Z</time>
      </trkpt>
      <trkpt lat="43.11991" lon="-0.65162">
        <ele>596.116</ele>
        <time>2020-12-03T12:43:27Z</time>
      </trkpt>
      <trkpt lat="43.11993" lon="-0.65291">
        <ele>597.208</ele>
        <time>2020-12-03T12:46:56Z</time>
      </trkpt>
      <trkpt lat="43.12017" lon="-0.65435">
        <ele>599.63</ele>
        <time>2020-12-03T12:47:39Z</time>
      </trkpt>
      <trkpt lat="43.11998" lon="-0.65592">
        <ele>594.365</ele>
        <time>2020-12-03T12:48:17Z</time>
      </trkpt>
      <trkpt lat="43.11974" lon="-0.65681">
        <ele>594.23</ele>
        <time>2020-12-03T12:49:44Z</time>
      </trkpt>
      <trkpt lat="43.11936" lon="-0.65739">
        <ele>593.196</ele>
        <time>2020-12-03T12:50:08Z</time>
      </trkpt>
      <trkpt lat="43.11867" lon="-0.65909">
        <ele>577.847</ele>
        <time>2020-12-03T12:50:45Z</time>
      </trkpt>
      <trkpt lat="43.11795" lon="-0.65976">
        <ele>560.392</ele>
        <time>2020-12-03T12:51:24Z</time>
      </trkpt>
      <trkpt lat="43.11734" lon="-0.65998">
        <ele>549.685</ele>
        <time>2020-12-03T12:51:48Z</time>
      </trkpt>
      <trkpt lat="43.11749" lon="-0.66039">
        <ele>542.046</ele>
        <time>2020-12-03T12:52:05Z</time>
      </trkpt>
      <trkpt lat="43.11723" lon="-0.6615">
        <ele>531.312</ele>
        <time>2020-12-03T12:52:38Z</time>
      </trkpt>
      <trkpt lat="43.11782" lon="-0.66318">
        <ele>509.832</ele>
        <time>2020-12-03T12:53:34Z</time>
      </trkpt>
      <trkpt lat="43.11771" lon="-0.66392">
        <ele>502.605</ele>
        <time>2020-12-03T12:56:22Z</time>
      </trkpt>
      <trkpt lat="43.11801" lon="-0.66547">
        <ele>486.808</ele>
        <time>2020-12-03T12:56:53Z</time>
      </trkpt>
      <trkpt lat="43.11795" lon="-0.66568">
        <ele>486.877</ele>
        <time>2020-12-03T12:57:13Z</time>
      </trkpt>
      <trkpt lat="43.11732" lon="-0.66612">
        <ele>492.232</ele>
        <time>2020-12-03T12:57:37Z</time>
      </trkpt>
      <trkpt lat="43.1167" lon="-0.66564">
        <ele>492.457</ele>
        <time>2020-12-03T12:58:01Z</time>
      </trkpt>
      <trkpt lat="43.11633" lon="-0.66567">
        <ele>490.263</ele>
        <time>2020-12-03T12:58:09Z</time>
      </trkpt>
      <trkpt lat="43.11541" lon="-0.66509">
        <ele>482.674</ele>
        <time>2020-12-03T12:58:26Z</time>
      </trkpt>
      <trkpt lat="43.11445" lon="-0.66504">
        <ele>467.169</ele>
        <time>2020-12-03T12:58:46Z</time>
      </trkpt>
      <trkpt lat="43.11377" lon="-0.66557">
        <ele>459.872</ele>
        <time>2020-12-03T12:58:59Z</time>
      </trkpt>
      <trkpt lat="43.11339" lon="-0.66564">
        <ele>455.773</ele>
        <time>2020-12-03T12:59:06Z</time>
      </trkpt>
      <trkpt lat="43.11279" lon="-0.66624">
        <ele>459.468</ele>
        <time>2020-12-03T12:59:31Z</time>
      </trkpt>
      <trkpt lat="43.11257" lon="-0.66698">
        <ele>459.442</ele>
        <time>2020-12-03T12:59:53Z</time>
      </trkpt>
      <trkpt lat="43.11251" lon="-0.66809">
        <ele>459.826</ele>
        <time>2020-12-03T13:00:15Z</time>
      </trkpt>
      <trkpt lat="43.11196" lon="-0.66915">
        <ele>461.808</ele>
        <time>2020-12-03T13:00:46Z</time>
      </trkpt>
      <trkpt lat="43.1116" lon="-0.66876">
        <ele>464.582</ele>
        <time>2020-12-03T13:01:03Z</time>
      </trkpt>
      <trkpt lat="43.11119" lon="-0.66756">
        <ele>457.087</ele>
        <time>2020-12-03T13:01:30Z</time>
      </trkpt>
      <trkpt lat="43.11096" lon="-0.66745">
        <ele>454.282</ele>
        <time>2020-12-03T13:01:34Z</time>
      </trkpt>
      <trkpt lat="43.11067" lon="-0.66763">
        <ele>453.238</ele>
        <time>2020-12-03T13:01:39Z</time>
      </trkpt>
      <trkpt lat="43.11041" lon="-0.66862">
        <ele>455.569</ele>
        <time>2020-12-03T13:02:03Z</time>
      </trkpt>
      <trkpt lat="43.11074" lon="-0.67016">
        <ele>461.494</ele>
        <time>2020-12-03T13:02:42Z</time>
      </trkpt>
      <trkpt lat="43.11069" lon="-0.67047">
        <ele>462.977</ele>
        <time>2020-12-03T13:02:52Z</time>
      </trkpt>
      <trkpt lat="43.11011" lon="-0.67016">
        <ele>464.828</ele>
        <time>2020-12-03T13:03:20Z</time>
      </trkpt>
      <trkpt lat="43.10957" lon="-0.67047">
        <ele>461.966</ele>
        <time>2020-12-03T13:03:33Z</time>
      </trkpt>
      <trkpt lat="43.1092" lon="-0.66989">
        <ele>467.429</ele>
        <time>2020-12-03T13:03:59Z</time>
      </trkpt>
      <trkpt lat="43.10847" lon="-0.67077">
        <ele>468.121</ele>
        <time>2020-12-03T13:04:34Z</time>
      </trkpt>
      <trkpt lat="43.10832" lon="-0.67039">
        <ele>469.708</ele>
        <time>2020-12-03T13:04:46Z</time>
      </trkpt>
      <trkpt lat="43.10791" lon="-0.67043">
        <ele>468.092</ele>
        <time>2020-12-03T13:04:54Z</time>
      </trkpt>
      <trkpt lat="43.10761" lon="-0.67005">
        <ele>472.697</ele>
        <time>2020-12-03T13:05:10Z</time>
      </trkpt>
      <trkpt lat="43.10645" lon="-0.6698">
        <ele>476.182</ele>
        <time>2020-12-03T13:08:39Z</time>
      </trkpt>
      <trkpt lat="43.10598" lon="-0.66908">
        <ele>473.868</ele>
        <time>2020-12-03T13:08:56Z</time>
      </trkpt>
      <trkpt lat="43.1061" lon="-0.6696">
        <ele>471.579</ele>
        <time>2020-12-03T13:09:04Z</time>
      </trkpt>
      <trkpt lat="43.10592" lon="-0.66968">
        <ele>468.824</ele>
        <time>2020-12-03T13:09:09Z</time>
      </trkpt>
      <trkpt lat="43.10441" lon="-0.66848">
        <ele>444.197</ele>
        <time>2020-12-03T13:09:26Z</time>
      </trkpt>
      <trkpt lat="43.10356" lon="-0.66725">
        <ele>420.858</ele>
        <time>2020-12-03T13:09:40Z</time>
      </trkpt>
      <trkpt lat="43.10402" lon="-0.6664">
        <ele>408.666</ele>
        <time>2020-12-03T13:09:50Z</time>
      </trkpt>
      <trkpt lat="43.10393" lon="-0.66621">
        <ele>405.029</ele>
        <time>2020-12-03T13:09:54Z</time>
      </trkpt>
      <trkpt lat="43.10301" lon="-0.66646">
        <ele>395.421</ele>
        <time>2020-12-03T13:10:04Z</time>
      </trkpt>
      <trkpt lat="43.1028" lon="-0.66634">
        <ele>392.708</ele>
        <time>2020-12-03T13:10:07Z</time>
      </trkpt>
      <trkpt lat="43.10281" lon="-0.6658">
        <ele>386.852</ele>
        <time>2020-12-03T13:10:12Z</time>
      </trkpt>
      <trkpt lat="43.10309" lon="-0.66493">
        <ele>374.097</ele>
        <time>2020-12-03T13:10:20Z</time>
      </trkpt>
      <trkpt lat="43.10303" lon="-0.66479">
        <ele>371.342</ele>
        <time>2020-12-03T13:10:22Z</time>
      </trkpt>
      <trkpt lat="43.10273" lon="-0.66495">
        <ele>366.218</ele>
        <time>2020-12-03T13:10:31Z</time>
      </trkpt>
      <trkpt lat="43.10271" lon="-0.66343">
        <ele>349.899</ele>
        <time>2020-12-03T13:10:59Z</time>
      </trkpt>
      <trkpt lat="43.10184" lon="-0.66212">
        <ele>368.094</ele>
        <time>2020-12-03T13:11:57Z</time>
      </trkpt>
      <trkpt lat="43.10114" lon="-0.66141">
        <ele>365.677</ele>
        <time>2020-12-03T13:12:26Z</time>
      </trkpt>
      <trkpt lat="43.10101" lon="-0.66091">
        <ele>364.788</ele>
        <time>2020-12-03T13:12:41Z</time>
      </trkpt>
      <trkpt lat="43.10023" lon="-0.66048">
        <ele>351.829</ele>
        <time>2020-12-03T13:12:55Z</time>
      </trkpt>
      <trkpt lat="43.1002" lon="-0.65953">
        <ele>343</ele>
        <time>2020-12-03T13:13:04Z</time>
      </trkpt>
      <trkpt lat="43.09984" lon="-0.65908">
        <ele>341.12</ele>
        <time>2020-12-03T13:13:11Z</time>
      </trkpt>
      <trkpt lat="43.09972" lon="-0.65762">
        <ele>340.908</ele>
        <time>2020-12-03T13:13:41Z</time>
      </trkpt>
      <trkpt lat="43.09938" lon="-0.6573">
        <ele>346.518</ele>
        <time>2020-12-03T13:13:57Z</time>
      </trkpt>
      <trkpt lat="43.09973" lon="-0.65661">
        <ele>352.233</ele>
        <time>2020-12-03T13:14:23Z</time>
      </trkpt>
      <trkpt lat="43.09962" lon="-0.65535">
        <ele>366.098</ele>
        <time>2020-12-03T13:15:05Z</time>
      </trkpt>
      <trkpt lat="43.09899" lon="-0.65355">
        <ele>380.574</ele>
        <time>2020-12-03T13:16:11Z</time>
      </trkpt>
      <trkpt lat="43.0968" lon="-0.65525">
        <ele>411.365</ele>
        <time>2020-12-03T13:18:11Z</time>
      </trkpt>
      <trkpt lat="43.09613" lon="-0.65559">
        <ele>424.47</ele>
        <time>2020-12-03T13:18:46Z</time>
      </trkpt>
      <trkpt lat="43.09328" lon="-0.65467">
        <ele>462.443</ele>
        <time>2020-12-03T13:21:06Z</time>
      </trkpt>
      <trkpt lat="43.09281" lon="-0.65485">
        <ele>470.614</ele>
        <time>2020-12-03T13:21:30Z</time>
      </trkpt>
      <trkpt lat="43.0917" lon="-0.65568">
        <ele>487.444</ele>
        <time>2020-12-03T13:22:32Z</time>
      </trkpt>
      <trkpt lat="43.09127" lon="-0.65568">
        <ele>490.705</ele>
        <time>2020-12-03T13:22:52Z</time>
      </trkpt>
      <trkpt lat="43.09063" lon="-0.65597">
        <ele>501.315</ele>
        <time>2020-12-03T13:23:24Z</time>
      </trkpt>
      <trkpt lat="43.08987" lon="-0.65593">
        <ele>515.708</ele>
        <time>2020-12-03T13:24:01Z</time>
      </trkpt>
      <trkpt lat="43.0893" lon="-0.6554">
        <ele>525.63</ele>
        <time>2020-12-03T13:24:34Z</time>
      </trkpt>
      <trkpt lat="43.08891" lon="-0.65525">
        <ele>531.785</ele>
        <time>2020-12-03T13:24:55Z</time>
      </trkpt>
      <trkpt lat="43.08728" lon="-0.65312">
        <ele>568.45</ele>
        <time>2020-12-03T13:26:45Z</time>
      </trkpt>
      <trkpt lat="43.08609" lon="-0.65186">
        <ele>584.246</ele>
        <time>2020-12-03T13:27:54Z</time>
      </trkpt>
      <trkpt lat="43.08482" lon="-0.65096">
        <ele>593.757</ele>
        <time>2020-12-03T13:29:01Z</time>
      </trkpt>
      <trkpt lat="43.08405" lon="-0.64978">
        <ele>601.172</ele>
        <time>2020-12-03T13:29:42Z</time>
      </trkpt>
      <trkpt lat="43.08212" lon="-0.64611">
        <ele>636.625</ele>
        <time>2020-12-03T13:31:54Z</time>
      </trkpt>
      <trkpt lat="43.08051" lon="-0.64462">
        <ele>652.986</ele>
        <time>2020-12-03T13:33:24Z</time>
      </trkpt>
      <trkpt lat="43.07944" lon="-0.64273">
        <ele>669.958</ele>
        <time>2020-12-03T13:34:45Z</time>
      </trkpt>
      <trkpt lat="43.07901" lon="-0.64233">
        <ele>670.852</ele>
        <time>2020-12-03T13:35:07Z</time>
      </trkpt>
      <trkpt lat="43.07858" lon="-0.64157">
        <ele>670.417</ele>
        <time>2020-12-03T13:36:50Z</time>
      </trkpt>
      <trkpt lat="43.07831" lon="-0.64142">
        <ele>668.708</ele>
        <time>2020-12-03T13:36:58Z</time>
      </trkpt>
      <trkpt lat="43.07789" lon="-0.64157">
        <ele>665.471</ele>
        <time>2020-12-03T13:37:05Z</time>
      </trkpt>
      <trkpt lat="43.07765" lon="-0.64144">
        <ele>664.216</ele>
        <time>2020-12-03T13:37:09Z</time>
      </trkpt>
      <trkpt lat="43.07702" lon="-0.64007">
        <ele>660.821</ele>
        <time>2020-12-03T13:37:42Z</time>
      </trkpt>
      <trkpt lat="43.07668" lon="-0.63981">
        <ele>656.237</ele>
        <time>2020-12-03T13:37:48Z</time>
      </trkpt>
      <trkpt lat="43.07661" lon="-0.63952">
        <ele>653.028</ele>
        <time>2020-12-03T13:37:52Z</time>
      </trkpt>
      <trkpt lat="43.07698" lon="-0.63872">
        <ele>646.973</ele>
        <time>2020-12-03T13:38:01Z</time>
      </trkpt>
      <trkpt lat="43.07693" lon="-0.63808">
        <ele>641.426</ele>
        <time>2020-12-03T13:38:09Z</time>
      </trkpt>
      <trkpt lat="43.07717" lon="-0.63729">
        <ele>634.697</ele>
        <time>2020-12-03T13:38:18Z</time>
      </trkpt>
      <trkpt lat="43.07713" lon="-0.63541">
        <ele>619.334</ele>
        <time>2020-12-03T13:38:40Z</time>
      </trkpt>
      <trkpt lat="43.07739" lon="-0.63321">
        <ele>594.355</ele>
        <time>2020-12-03T13:39:08Z</time>
      </trkpt>
      <trkpt lat="43.07723" lon="-0.63158">
        <ele>578.31</ele>
        <time>2020-12-03T13:39:25Z</time>
      </trkpt>
      <trkpt lat="43.0773" lon="-0.63">
        <ele>564.708</ele>
        <time>2020-12-03T13:39:41Z</time>
      </trkpt>
      <trkpt lat="43.07767" lon="-0.62784">
        <ele>548.939</ele>
        <time>2020-12-03T13:40:10Z</time>
      </trkpt>
      <trkpt lat="43.07765" lon="-0.62695">
        <ele>542.764</ele>
        <time>2020-12-03T13:40:21Z</time>
      </trkpt>
      <trkpt lat="43.07796" lon="-0.6238">
        <ele>517.679</ele>
        <time>2020-12-03T13:42:42Z</time>
      </trkpt>
      <trkpt lat="43.07818" lon="-0.62307">
        <ele>512.145</ele>
        <time>2020-12-03T13:42:50Z</time>
      </trkpt>
      <trkpt lat="43.07809" lon="-0.6222">
        <ele>504.986</ele>
        <time>2020-12-03T13:43:00Z</time>
      </trkpt>
      <trkpt lat="43.07837" lon="-0.6215">
        <ele>498.881</ele>
        <time>2020-12-03T13:43:10Z</time>
      </trkpt>
      <trkpt lat="43.07814" lon="-0.62034">
        <ele>490.184</ele>
        <time>2020-12-03T13:43:23Z</time>
      </trkpt>
      <trkpt lat="43.07857" lon="-0.61889">
        <ele>474.365</ele>
        <time>2020-12-03T13:43:56Z</time>
      </trkpt>
      <trkpt lat="43.07827" lon="-0.61847">
        <ele>470.413</ele>
        <time>2020-12-03T13:44:10Z</time>
      </trkpt>
      <trkpt lat="43.07872" lon="-0.61711">
        <ele>458.143</ele>
        <time>2020-12-03T13:44:41Z</time>
      </trkpt>
      <trkpt lat="43.07855" lon="-0.61818">
        <ele>450.907</ele>
        <time>2020-12-03T13:44:57Z</time>
      </trkpt>
      <trkpt lat="43.07863" lon="-0.61828">
        <ele>449.008</ele>
        <time>2020-12-03T13:45:00Z</time>
      </trkpt>
      <trkpt lat="43.07914" lon="-0.6181">
        <ele>444.617</ele>
        <time>2020-12-03T13:45:10Z</time>
      </trkpt>
      <trkpt lat="43.07932" lon="-0.61817">
        <ele>441.742</ele>
        <time>2020-12-03T13:45:14Z</time>
      </trkpt>
      <trkpt lat="43.07931" lon="-0.61966">
        <ele>428.397</ele>
        <time>2020-12-03T13:45:31Z</time>
      </trkpt>
      <trkpt lat="43.07946" lon="-0.61978">
        <ele>424.083</ele>
        <time>2020-12-03T13:45:37Z</time>
      </trkpt>
      <trkpt lat="43.0801" lon="-0.61774">
        <ele>403.954</ele>
        <time>2020-12-03T13:46:11Z</time>
      </trkpt>
      <trkpt lat="43.07998" lon="-0.61699">
        <ele>396.929</ele>
        <time>2020-12-03T13:46:24Z</time>
      </trkpt>
      <trkpt lat="43.0806" lon="-0.61598">
        <ele>385.942</ele>
        <time>2020-12-03T13:46:41Z</time>
      </trkpt>
      <trkpt lat="43.08083" lon="-0.6151">
        <ele>376.993</ele>
        <time>2020-12-03T13:46:53Z</time>
      </trkpt>
      <trkpt lat="43.08127" lon="-0.61465">
        <ele>369.291</ele>
        <time>2020-12-03T13:47:05Z</time>
      </trkpt>
      <trkpt lat="43.08131" lon="-0.61427">
        <ele>366.281</ele>
        <time>2020-12-03T13:47:11Z</time>
      </trkpt>
      <trkpt lat="43.08108" lon="-0.6136">
        <ele>361.019</ele>
        <time>2020-12-03T13:47:59Z</time>
      </trkpt>
      <trkpt lat="43.08075" lon="-0.61339">
        <ele>361.608</ele>
        <time>2020-12-03T13:48:21Z</time>
      </trkpt>
      <trkpt lat="43.08004" lon="-0.61302">
        <ele>362.165</ele>
        <time>2020-12-03T13:48:54Z</time>
      </trkpt>
      <trkpt lat="43.07871" lon="-0.61277">
        <ele>358.99</ele>
        <time>2020-12-03T13:49:27Z</time>
      </trkpt>
      <trkpt lat="43.07777" lon="-0.61222">
        <ele>355.535</ele>
        <time>2020-12-03T13:49:44Z</time>
      </trkpt>
      <trkpt lat="43.07733" lon="-0.6115">
        <ele>354.981</ele>
        <time>2020-12-03T13:49:54Z</time>
      </trkpt>
      <trkpt lat="43.07465" lon="-0.60862">
        <ele>352.552</ele>
        <time>2020-12-03T13:50:56Z</time>
      </trkpt>
      <trkpt lat="43.07302" lon="-0.60742">
        <ele>354.317</ele>
        <time>2020-12-03T13:51:32Z</time>
      </trkpt>
      <trkpt lat="43.07202" lon="-0.60691">
        <ele>356.49</ele>
        <time>2020-12-03T13:51:56Z</time>
      </trkpt>
      <trkpt lat="43.07174" lon="-0.60661">
        <ele>356.631</ele>
        <time>2020-12-03T13:52:07Z</time>
      </trkpt>
      <trkpt lat="43.07177" lon="-0.60643">
        <ele>356.646</ele>
        <time>2020-12-03T13:52:13Z</time>
      </trkpt>
      <trkpt lat="43.07196" lon="-0.60614">
        <ele>356.588</ele>
        <time>2020-12-03T13:52:24Z</time>
      </trkpt>
      <trkpt lat="43.07327" lon="-0.60611">
        <ele>366.816</ele>
        <time>2020-12-03T13:53:09Z</time>
      </trkpt>
      <trkpt lat="43.07464" lon="-0.60676">
        <ele>365.908</ele>
        <time>2020-12-03T13:53:47Z</time>
      </trkpt>
      <trkpt lat="43.07498" lon="-0.60679">
        <ele>366.36</ele>
        <time>2020-12-03T13:53:56Z</time>
      </trkpt>
      <trkpt lat="43.07523" lon="-0.60654">
        <ele>367.055</ele>
        <time>2020-12-03T13:54:04Z</time>
      </trkpt>
      <trkpt lat="43.07546" lon="-0.60563">
        <ele>369.05</ele>
        <time>2020-12-03T13:54:23Z</time>
      </trkpt>
      <trkpt lat="43.07597" lon="-0.60511">
        <ele>365.976</ele>
        <time>2020-12-03T13:54:34Z</time>
      </trkpt>
      <trkpt lat="43.07637" lon="-0.60544">
        <ele>365.347</ele>
        <time>2020-12-03T13:54:42Z</time>
      </trkpt>
      <trkpt lat="43.07715" lon="-0.60715">
        <ele>375.672</ele>
        <time>2020-12-03T13:55:40Z</time>
      </trkpt>
      <trkpt lat="43.07893" lon="-0.6085">
        <ele>372.445</ele>
        <time>2020-12-03T13:56:27Z</time>
      </trkpt>
      <trkpt lat="43.08009" lon="-0.60887">
        <ele>371.896</ele>
        <time>2020-12-03T13:56:53Z</time>
      </trkpt>
      <trkpt lat="43.08098" lon="-0.6087">
        <ele>371.683</ele>
        <time>2020-12-03T13:57:12Z</time>
      </trkpt>
      <trkpt lat="43.08132" lon="-0.6085">
        <ele>369.825</ele>
        <time>2020-12-03T13:57:18Z</time>
      </trkpt>
      <trkpt lat="43.08195" lon="-0.60872">
        <ele>370.217</ele>
        <time>2020-12-03T13:57:32Z</time>
      </trkpt>
      <trkpt lat="43.08272" lon="-0.60845">
        <ele>365.408</ele>
        <time>2020-12-03T13:57:44Z</time>
      </trkpt>
      <trkpt lat="43.0829" lon="-0.60853">
        <ele>366.044</ele>
        <time>2020-12-03T13:57:47Z</time>
      </trkpt>
      <trkpt lat="43.0836" lon="-0.61086">
        <ele>365.269</ele>
        <time>2020-12-03T13:58:26Z</time>
      </trkpt>
      <trkpt lat="43.08445" lon="-0.61161">
        <ele>363.954</ele>
        <time>2020-12-03T13:58:43Z</time>
      </trkpt>
      <trkpt lat="43.08475" lon="-0.61164">
        <ele>363.05</ele>
        <time>2020-12-03T13:58:48Z</time>
      </trkpt>
      <trkpt lat="43.08568" lon="-0.61125">
        <ele>361.661</ele>
        <time>2020-12-03T13:59:07Z</time>
      </trkpt>
      <trkpt lat="43.08797" lon="-0.6109">
        <ele>355.686</ele>
        <time>2020-12-03T13:59:50Z</time>
      </trkpt>
      <trkpt lat="43.08859" lon="-0.61065">
        <ele>355.379</ele>
        <time>2020-12-03T14:00:03Z</time>
      </trkpt>
      <trkpt lat="43.08948" lon="-0.6107">
        <ele>356.57</ele>
        <time>2020-12-03T14:00:21Z</time>
      </trkpt>
      <trkpt lat="43.09093" lon="-0.61119">
        <ele>363.365</ele>
        <time>2020-12-03T14:01:00Z</time>
      </trkpt>
      <trkpt lat="43.09169" lon="-0.61122">
        <ele>363.668</ele>
        <time>2020-12-03T14:01:20Z</time>
      </trkpt>
      <trkpt lat="43.09288" lon="-0.61248">
        <ele>362.014</ele>
        <time>2020-12-03T14:01:58Z</time>
      </trkpt>
      <trkpt lat="43.094" lon="-0.61283">
        <ele>358.908</ele>
        <time>2020-12-03T14:02:24Z</time>
      </trkpt>
      <trkpt lat="43.09438" lon="-0.61311">
        <ele>354.442</ele>
        <time>2020-12-03T14:02:34Z</time>
      </trkpt>
      <trkpt lat="43.09448" lon="-0.61347">
        <ele>351.867</ele>
        <time>2020-12-03T14:02:42Z</time>
      </trkpt>
      <trkpt lat="43.09537" lon="-0.61379">
        <ele>350.222</ele>
        <time>2020-12-03T14:03:05Z</time>
      </trkpt>
      <trkpt lat="43.09689" lon="-0.61473">
        <ele>349.518</ele>
        <time>2020-12-03T14:03:47Z</time>
      </trkpt>
      <trkpt lat="43.0975" lon="-0.61474">
        <ele>349.879</ele>
        <time>2020-12-03T14:04:05Z</time>
      </trkpt>
      <trkpt lat="43.09867" lon="-0.61407">
        <ele>351.334</ele>
        <time>2020-12-03T14:05:31Z</time>
      </trkpt>
      <trkpt lat="43.0992" lon="-0.61413">
        <ele>352.337</ele>
        <time>2020-12-03T14:05:56Z</time>
      </trkpt>
      <trkpt lat="43.09968" lon="-0.61437">
        <ele>350.778</ele>
        <time>2020-12-03T14:06:11Z</time>
      </trkpt>
      <trkpt lat="43.10021" lon="-0.61489">
        <ele>351.787</ele>
        <time>2020-12-03T14:06:29Z</time>
      </trkpt>
      <trkpt lat="43.10102" lon="-0.61632">
        <ele>352.342</ele>
        <time>2020-12-03T14:07:32Z</time>
      </trkpt>
      <trkpt lat="43.10253" lon="-0.61653">
        <ele>351.426</ele>
        <time>2020-12-03T14:08:28Z</time>
      </trkpt>
      <trkpt lat="43.10357" lon="-0.61708">
        <ele>352.108</ele>
        <time>2020-12-03T14:08:51Z</time>
      </trkpt>
      <trkpt lat="43.10452" lon="-0.61854">
        <ele>349.824</ele>
        <time>2020-12-03T14:09:20Z</time>
      </trkpt>
      <trkpt lat="43.10513" lon="-0.62038">
        <ele>352.039</ele>
        <time>2020-12-03T14:09:53Z</time>
      </trkpt>
      <trkpt lat="43.10559" lon="-0.62083">
        <ele>350.144</ele>
        <time>2020-12-03T14:10:02Z</time>
      </trkpt>
      <trkpt lat="43.10627" lon="-0.62081">
        <ele>350.08</ele>
        <time>2020-12-03T14:10:16Z</time>
      </trkpt>
      <trkpt lat="43.10693" lon="-0.62047">
        <ele>353.061</ele>
        <time>2020-12-03T14:10:32Z</time>
      </trkpt>
      <trkpt lat="43.10716" lon="-0.62016">
        <ele>354.816</ele>
        <time>2020-12-03T14:10:39Z</time>
      </trkpt>
      <trkpt lat="43.10927" lon="-0.61607">
        <ele>351.539</ele>
        <time>2020-12-03T14:11:56Z</time>
      </trkpt>
      <trkpt lat="43.11005" lon="-0.61483">
        <ele>350.39</ele>
        <time>2020-12-03T14:12:20Z</time>
      </trkpt>
      <trkpt lat="43.11206" lon="-0.61274">
        <ele>347.497</ele>
        <time>2020-12-03T14:13:16Z</time>
      </trkpt>
      <trkpt lat="43.11193" lon="-0.61216">
        <ele>348.923</ele>
        <time>2020-12-03T14:13:30Z</time>
      </trkpt>
      <trkpt lat="43.11224" lon="-0.61078">
        <ele>348.325</ele>
        <time>2020-12-03T14:14:03Z</time>
      </trkpt>
      <trkpt lat="43.11176" lon="-0.60997">
        <ele>349.908</ele>
        <time>2020-12-03T14:14:22Z</time>
      </trkpt>
      <trkpt lat="43.11189" lon="-0.60884">
        <ele>348.755</ele>
        <time>2020-12-03T14:14:42Z</time>
      </trkpt>
      <trkpt lat="43.11253" lon="-0.60774">
        <ele>345.53</ele>
        <time>2020-12-03T14:15:05Z</time>
      </trkpt>
      <trkpt lat="43.11258" lon="-0.60728">
        <ele>343.915</ele>
        <time>2020-12-03T14:15:10Z</time>
      </trkpt>
      <trkpt lat="43.11302" lon="-0.60697">
        <ele>342.771</ele>
        <time>2020-12-03T14:15:19Z</time>
      </trkpt>
      <trkpt lat="43.11337" lon="-0.60597">
        <ele>352.382</ele>
        <time>2020-12-03T14:15:48Z</time>
      </trkpt>
      <trkpt lat="43.11346" lon="-0.60551">
        <ele>358.437</ele>
        <time>2020-12-03T14:16:05Z</time>
      </trkpt>
      <trkpt lat="43.11328" lon="-0.60494">
        <ele>365.45</ele>
        <time>2020-12-03T14:16:52Z</time>
      </trkpt>
      <trkpt lat="43.11341" lon="-0.60474">
        <ele>368.451</ele>
        <time>2020-12-03T14:17:30Z</time>
      </trkpt>
      <trkpt lat="43.11343" lon="-0.6042">
        <ele>377.787</ele>
        <time>2020-12-03T14:19:46Z</time>
      </trkpt>
      <trkpt lat="43.11378" lon="-0.60401">
        <ele>390.142</ele>
        <time>2020-12-03T14:21:37Z</time>
      </trkpt>
      <trkpt lat="43.11405" lon="-0.60403">
        <ele>395.326</ele>
        <time>2020-12-03T14:22:36Z</time>
      </trkpt>
      <trkpt lat="43.11467" lon="-0.60313">
        <ele>400.308</ele>
        <time>2020-12-03T14:25:15Z</time>
      </trkpt>
      <trkpt lat="43.11494" lon="-0.60247">
        <ele>398.434</ele>
        <time>2020-12-03T14:25:37Z</time>
      </trkpt>
      <trkpt lat="43.11498" lon="-0.60185">
        <ele>396.719</ele>
        <time>2020-12-03T14:25:49Z</time>
      </trkpt>
      <trkpt lat="43.11577" lon="-0.60027">
        <ele>385.514</ele>
        <time>2020-12-03T14:26:14Z</time>
      </trkpt>
      <trkpt lat="43.11612" lon="-0.60041">
        <ele>380.59</ele>
        <time>2020-12-03T14:26:20Z</time>
      </trkpt>
      <trkpt lat="43.11633" lon="-0.60032">
        <ele>379.141</ele>
        <time>2020-12-03T14:26:26Z</time>
      </trkpt>
      <trkpt lat="43.1178" lon="-0.5941">
        <ele>363.036</ele>
        <time>2020-12-03T14:27:47Z</time>
      </trkpt>
      <trkpt lat="43.11902" lon="-0.59352">
        <ele>354.789</ele>
        <time>2020-12-03T14:28:00Z</time>
      </trkpt>
      <trkpt lat="43.11949" lon="-0.59371">
        <ele>353.06</ele>
        <time>2020-12-03T14:28:06Z</time>
      </trkpt>
      <trkpt lat="43.11983" lon="-0.59451">
        <ele>351.148</ele>
        <time>2020-12-03T14:28:16Z</time>
      </trkpt>
      <trkpt lat="43.12026" lon="-0.59475">
        <ele>350.061</ele>
        <time>2020-12-03T14:28:25Z</time>
      </trkpt>
      <trkpt lat="43.12113" lon="-0.59446">
        <ele>349.217</ele>
        <time>2020-12-03T14:28:43Z</time>
      </trkpt>
      <trkpt lat="43.12166" lon="-0.59392">
        <ele>347.708</ele>
        <time>2020-12-03T14:28:55Z</time>
      </trkpt>
      <trkpt lat="43.12321" lon="-0.59369">
        <ele>345.22</ele>
        <time>2020-12-03T14:29:25Z</time>
      </trkpt>
      <trkpt lat="43.12649" lon="-0.59282">
        <ele>346.795</ele>
        <time>2020-12-03T14:30:23Z</time>
      </trkpt>
      <trkpt lat="43.1278" lon="-0.59353">
        <ele>347.85</ele>
        <time>2020-12-03T14:30:48Z</time>
      </trkpt>
      <trkpt lat="43.12893" lon="-0.59337">
        <ele>348.856</ele>
        <time>2020-12-03T14:31:09Z</time>
      </trkpt>
      <trkpt lat="43.12952" lon="-0.59354">
        <ele>348.937</ele>
        <time>2020-12-03T14:31:24Z</time>
      </trkpt>
      <trkpt lat="43.13076" lon="-0.5936">
        <ele>346.562</ele>
        <time>2020-12-03T14:32:38Z</time>
      </trkpt>
      <trkpt lat="43.13166" lon="-0.59401">
        <ele>340.015</ele>
        <time>2020-12-03T14:32:50Z</time>
      </trkpt>
      <trkpt lat="43.13233" lon="-0.59471">
        <ele>333.186</ele>
        <time>2020-12-03T14:32:58Z</time>
      </trkpt>
      <trkpt lat="43.1354" lon="-0.59488">
        <ele>319.346</ele>
        <time>2020-12-03T14:33:32Z</time>
      </trkpt>
      <trkpt lat="43.13778" lon="-0.59381">
        <ele>317.888</ele>
        <time>2020-12-03T14:34:22Z</time>
      </trkpt>
      <trkpt lat="43.13862" lon="-0.59321">
        <ele>316.116</ele>
        <time>2020-12-03T14:34:42Z</time>
      </trkpt>
      <trkpt lat="43.13868" lon="-0.59235">
        <ele>316.408</ele>
        <time>2020-12-03T14:35:00Z</time>
      </trkpt>
      <trkpt lat="43.13878" lon="-0.59263">
        <ele>315.91</ele>
        <time>2020-12-03T14:37:56Z</time>
      </trkpt>
    </trkseg>
  </trk>
</gpx>